createdAt,value
2023-05-09T00:01:25.217Z,3.95
2023-05-09T00:03:52.316Z,3.70
2023-05-09T00:06:19.782Z,3.97
2023-05-09T00:08:46.749Z,3.88
2023-05-09T00:11:13.931Z,4.32
2023-05-09T00:13:41.979Z,4.40
2023-05-09T00:16:09.296Z,4.20
2023-05-09T00:18:37.511Z,4.07
2023-05-09T00:21:04.879Z,3.95
2023-05-09T00:23:31.687Z,3.92
2023-05-09T00:25:59.601Z,3.70
2023-05-09T00:28:27.232Z,3.55
2023-05-09T00:30:54.115Z,3.58
2023-05-09T00:33:21.001Z,3.80
2023-05-09T00:35:47.946Z,3.47
2023-05-09T00:38:14.833Z,3.40
2023-05-09T00:40:41.700Z,3.50
2023-05-09T00:43:08.645Z,3.25
2023-05-09T00:45:35.648Z,2.95
2023-05-09T00:48:03.404Z,3.10
2023-05-09T00:50:31.214Z,3.30
2023-05-09T00:52:58.862Z,3.42
2023-05-09T00:55:27.267Z,3.17
2023-05-09T00:57:54.107Z,3.00
2023-05-09T01:00:21.166Z,2.72
2023-05-09T01:02:56.301Z,2.92
2023-05-09T01:05:29.232Z,3.00
2023-05-09T01:08:17.387Z,3.10
2023-05-09T01:10:58.361Z,3.10
2023-05-09T01:13:39.797Z,2.80
2023-05-09T01:16:17.827Z,3.13
2023-05-09T01:19:23.124Z,2.72
2023-05-09T01:21:51.445Z,2.78
2023-05-09T01:24:56.374Z,3.00
2023-05-09T01:27:45.240Z,2.97
2023-05-09T01:30:13.949Z,2.97
2023-05-09T01:32:43.355Z,3.40
2023-05-09T01:35:14.768Z,3.50
2023-05-09T01:37:44.613Z,3.25
2023-05-09T01:40:14.964Z,3.25
2023-05-09T01:42:49.786Z,3.67
2023-05-09T01:45:19.203Z,3.30
2023-05-09T01:47:48.994Z,2.80
2023-05-09T01:50:18.047Z,3.00
2023-05-09T01:52:48.622Z,2.60
2023-05-09T01:55:19.736Z,3.03
2023-05-09T01:57:47.626Z,2.70
2023-05-09T02:00:15.165Z,3.08
2023-05-09T02:02:44.450Z,2.60
2023-05-09T02:05:12.448Z,2.85
2023-05-09T02:07:41.750Z,2.65
2023-05-09T02:10:10.280Z,2.80
2023-05-09T02:12:38.324Z,3.10
2023-05-09T02:15:06.625Z,2.58
2023-05-09T02:17:33.687Z,2.70
2023-05-09T02:20:00.553Z,3.08
2023-05-09T02:22:28.053Z,3.10
2023-05-09T02:24:54.958Z,3.13
2023-05-09T02:27:22.225Z,2.95
2023-05-09T02:29:51.799Z,3.25
2023-05-09T02:32:25.518Z,3.30
2023-05-09T02:34:54.022Z,3.20
2023-05-09T02:37:21.484Z,2.80
2023-05-09T02:39:48.594Z,2.92
2023-05-09T02:42:21.296Z,3.05
2023-05-09T02:44:48.010Z,3.30
2023-05-09T02:47:15.973Z,3.03
2023-05-09T02:49:42.774Z,3.40
2023-05-09T02:52:09.627Z,3.13
2023-05-09T02:54:36.436Z,3.20
2023-05-09T02:57:03.562Z,2.90
2023-05-09T02:59:30.511Z,3.30
2023-05-09T03:02:01.156Z,2.90
2023-05-09T03:04:28.917Z,3.05
2023-05-09T03:06:55.675Z,3.20
2023-05-09T03:09:23.788Z,3.08
2023-05-09T03:11:50.710Z,3.35
2023-05-09T03:14:17.588Z,3.03
2023-05-09T03:16:44.377Z,3.10
2023-05-09T03:19:20.533Z,3.35
2023-05-09T03:21:47.287Z,3.25
2023-05-09T03:24:14.213Z,2.95
2023-05-09T03:26:41.004Z,3.15
2023-05-09T03:29:07.893Z,3.75
2023-05-09T03:31:34.867Z,3.85
2023-05-09T03:34:01.718Z,3.42
2023-05-09T03:36:28.859Z,3.45
2023-05-09T03:38:56.159Z,3.40
2023-05-09T03:41:23.433Z,3.40
2023-05-09T03:43:50.283Z,3.13
2023-05-09T03:46:17.106Z,3.55
2023-05-09T03:48:46.264Z,3.33
2023-05-09T03:51:13.793Z,3.50
2023-05-09T03:53:41.990Z,3.45
2023-05-09T03:56:09.522Z,3.55
2023-05-09T03:58:44.234Z,3.10
2023-05-09T04:01:12.797Z,3.47
2023-05-09T04:03:40.489Z,2.90
2023-05-09T04:06:07.898Z,3.50
2023-05-09T04:11:06.104Z,3.17
2023-05-09T04:13:33.980Z,2.75
2023-05-09T04:16:05.411Z,3.20
2023-05-09T04:18:33.735Z,3.20
2023-05-09T04:21:00.528Z,3.33
2023-05-09T04:23:27.461Z,3.25
2023-05-09T04:25:57.660Z,3.40
2023-05-09T04:28:25.075Z,3.05
2023-05-09T04:30:52.253Z,3.22
2023-05-09T04:33:20.144Z,2.92
2023-05-09T04:35:48.698Z,2.90
2023-05-09T04:38:16.696Z,2.65
2023-05-09T04:40:43.686Z,2.30
2023-05-09T04:43:10.657Z,2.20
2023-05-09T04:45:37.372Z,2.30
2023-05-09T04:48:04.682Z,2.10
2023-05-09T04:50:31.625Z,2.03
2023-05-09T04:52:58.304Z,1.80
2023-05-09T04:55:25.194Z,2.08
2023-05-09T04:57:53.057Z,2.00
2023-05-09T05:00:20.098Z,1.80
2023-05-09T05:02:48.450Z,2.00
2023-05-09T05:05:15.436Z,1.80
2023-05-09T05:07:43.501Z,1.90
2023-05-09T05:10:13.725Z,1.70
2023-05-09T05:12:43.982Z,1.50
2023-05-09T05:15:13.794Z,1.53
2023-05-09T05:20:10.831Z,1.48
2023-05-09T05:22:42.245Z,1.45
2023-05-09T05:25:09.420Z,1.60
2023-05-09T05:27:37.555Z,1.45
2023-05-09T05:30:05.213Z,1.50
2023-05-09T05:32:32.229Z,1.55
2023-05-09T05:34:59.395Z,1.38
2023-05-09T05:37:26.452Z,1.40
2023-05-09T05:39:53.324Z,1.50
2023-05-09T05:42:20.196Z,1.58
2023-05-09T05:44:46.997Z,1.70
2023-05-09T05:47:13.769Z,1.85
2023-05-09T05:49:41.669Z,2.33
2023-05-09T05:52:09.324Z,2.30
2023-05-09T05:54:36.881Z,2.30
2023-05-09T05:57:03.744Z,2.58
2023-05-09T05:59:30.820Z,2.50
2023-05-09T06:01:57.727Z,2.60
2023-05-09T06:04:24.977Z,2.30
2023-05-09T06:06:51.871Z,2.00
2023-05-09T06:09:18.694Z,1.80
2023-05-09T06:11:45.754Z,1.70
2023-05-09T06:14:12.645Z,1.20
2023-05-09T06:17:00.170Z,1.05
2023-05-09T06:19:29.907Z,1.00
2023-05-09T06:21:56.717Z,1.08
2023-05-09T06:24:35.096Z,1.10
2023-05-09T06:27:04.409Z,1.20
2023-05-09T06:29:31.198Z,1.10
2023-05-09T06:31:59.641Z,1.30
2023-05-09T06:34:26.644Z,1.20
2023-05-09T06:36:53.406Z,1.38
2023-05-09T06:39:20.383Z,1.20
2023-05-09T06:41:47.323Z,1.20
2023-05-09T06:44:23.124Z,1.40
2023-05-09T06:46:49.886Z,2.10
2023-05-09T06:49:16.588Z,1.33
2023-05-09T06:51:43.272Z,1.20
2023-05-09T06:54:10.074Z,1.33
2023-05-09T06:56:36.874Z,2.53
2023-05-09T06:59:03.603Z,1.30
2023-05-09T07:01:30.881Z,1.10
2023-05-09T07:03:59.178Z,1.20
2023-05-09T07:06:26.039Z,1.17
2023-05-09T07:08:53.232Z,1.30
2023-05-09T07:11:21.154Z,1.20
2023-05-09T07:13:48.149Z,1.20
2023-05-09T07:16:15.352Z,1.23
2023-05-09T07:18:42.082Z,1.23
2023-05-09T07:21:08.797Z,1.20
2023-05-09T07:23:35.632Z,1.50
2023-05-09T07:26:02.476Z,1.20
2023-05-09T07:28:29.245Z,1.35
2023-05-09T07:30:56.697Z,1.30
2023-05-09T07:33:23.603Z,1.10
2023-05-09T07:35:50.630Z,1.00
2023-05-09T07:38:17.390Z,1.00
2023-05-09T07:40:44.439Z,1.10
2023-05-09T07:43:11.298Z,1.30
2023-05-09T07:45:38.042Z,1.10
2023-05-09T07:48:05.145Z,1.10
2023-05-09T07:50:31.968Z,1.00
2023-05-09T07:52:59.606Z,1.10
2023-05-09T07:55:26.277Z,1.10
2023-05-09T07:57:53.007Z,1.02
2023-05-09T08:00:23.978Z,0.90
2023-05-09T08:02:52.404Z,1.05
2023-05-09T08:05:19.757Z,1.10
2023-05-09T08:07:46.606Z,1.20
2023-05-09T08:10:13.467Z,1.23
2023-05-09T08:12:41.594Z,1.15
2023-05-09T08:15:08.910Z,1.10
2023-05-09T08:17:35.705Z,1.20
2023-05-09T08:20:02.511Z,1.10
2023-05-09T08:22:29.311Z,1.10
2023-05-09T08:24:56.073Z,1.30
2023-05-09T08:27:22.822Z,1.13
2023-05-09T08:29:49.574Z,0.98
2023-05-09T08:32:16.344Z,1.00
2023-05-09T08:34:43.173Z,0.90
2023-05-09T08:37:09.916Z,1.30
2023-05-09T08:39:36.782Z,0.82
2023-05-09T08:42:03.838Z,1.00
2023-05-09T08:44:31.622Z,0.90
2023-05-09T08:47:03.589Z,0.98
2023-05-09T08:49:30.564Z,1.10
2023-05-09T08:51:57.747Z,0.90
2023-05-09T08:54:25.007Z,1.00
2023-05-09T08:56:52.462Z,1.00
2023-05-09T08:59:19.738Z,0.93
2023-05-09T09:01:47.564Z,0.90
2023-05-09T09:04:14.889Z,1.10
2023-05-09T09:06:41.893Z,1.00
2023-05-09T09:09:09.208Z,1.05
2023-05-09T09:11:37.472Z,0.95
2023-05-09T09:14:13.345Z,1.20
2023-05-09T09:16:42.840Z,0.90
2023-05-09T09:19:17.315Z,1.30
2023-05-09T09:21:46.983Z,0.90
2023-05-09T09:24:14.392Z,1.00
2023-05-09T09:26:48.623Z,0.90
2023-05-09T09:29:15.841Z,0.90
2023-05-09T09:31:47.349Z,0.93
2023-05-09T09:34:20.764Z,0.88
2023-05-09T09:36:48.571Z,0.90
2023-05-09T09:39:15.847Z,0.90
2023-05-09T09:41:44.640Z,0.82
2023-05-09T09:44:16.862Z,0.80
2023-05-09T09:46:55.700Z,0.90
2023-05-09T09:49:24.903Z,0.82
2023-05-09T09:51:53.422Z,0.95
2023-05-09T09:54:20.417Z,0.80
2023-05-09T09:56:48.941Z,0.90
2023-05-09T09:59:22.587Z,0.93
2023-05-09T10:01:58.377Z,0.80
2023-05-09T10:04:27.532Z,0.85
2023-05-09T10:07:06.041Z,1.05
2023-05-09T10:09:35.157Z,0.90
2023-05-09T10:12:04.231Z,1.00
2023-05-09T10:14:34.942Z,1.00
2023-05-09T10:17:04.201Z,1.00
2023-05-09T10:19:32.139Z,1.60
2023-05-09T10:22:06.207Z,0.90
2023-05-09T10:25:05.640Z,1.00
2023-05-09T10:30:07.290Z,0.90
2023-05-09T10:32:52.075Z,1.00
2023-05-09T10:35:22.984Z,0.80
2023-05-09T10:37:50.113Z,0.80
2023-05-09T10:40:20.074Z,0.80
2023-05-09T10:42:47.082Z,0.70
2023-05-09T10:45:14.457Z,0.70
2023-05-09T10:47:43.294Z,0.95
2023-05-09T10:53:08.464Z,1.05
2023-05-09T10:55:50.273Z,1.10
2023-05-09T10:58:21.379Z,0.98
2023-05-09T11:00:54.206Z,1.00
2023-05-09T11:03:23.641Z,1.00
2023-05-09T11:05:58.302Z,0.90
2023-05-09T11:08:29.263Z,1.00
2023-05-09T11:10:57.800Z,0.90
2023-05-09T11:13:25.765Z,0.90
2023-05-09T11:16:05.027Z,0.82
2023-05-09T11:18:32.987Z,0.90
2023-05-09T11:21:07.054Z,0.90
2023-05-09T11:23:34.262Z,0.90
2023-05-09T11:26:06.572Z,0.80
2023-05-09T11:28:36.734Z,1.00
2023-05-09T11:31:11.265Z,0.90
2023-05-09T11:33:39.656Z,0.85
2023-05-09T11:36:19.565Z,0.80
2023-05-09T11:38:47.838Z,0.90
2023-05-09T11:41:15.718Z,0.90
2023-05-09T11:43:44.657Z,0.93
2023-05-09T11:46:12.971Z,0.90
2023-05-09T11:48:42.321Z,0.90
2023-05-09T11:51:18.356Z,0.90
2023-05-09T11:53:49.760Z,1.15
2023-05-09T11:56:17.428Z,0.90
2023-05-09T11:58:44.429Z,0.77
2023-05-09T12:01:12.679Z,0.90
2023-05-09T12:03:45.014Z,0.90
2023-05-09T12:06:17.550Z,0.88
2023-05-09T12:08:45.858Z,0.80
2023-05-09T12:11:13.886Z,0.80
2023-05-09T12:13:50.431Z,0.75
2023-05-09T12:16:19.124Z,0.75
2023-05-09T12:18:50.651Z,0.70
2023-05-09T12:21:18.773Z,0.80
2023-05-09T12:23:51.306Z,0.80
2023-05-09T12:26:22.704Z,0.85
2023-05-09T12:28:50.611Z,0.90
2023-05-09T12:31:18.018Z,0.90
2023-05-09T12:33:45.429Z,0.90
2023-05-09T12:36:13.752Z,0.90
2023-05-09T12:38:41.256Z,1.00
2023-05-09T12:41:26.100Z,0.80
2023-05-09T12:43:57.556Z,0.82
2023-05-09T12:46:24.718Z,0.90
2023-05-09T12:48:52.018Z,0.98
2023-05-09T12:51:20.867Z,0.90
2023-05-09T12:53:48.639Z,0.90
2023-05-09T12:58:55.132Z,0.80
2023-05-09T13:04:03.835Z,0.85
2023-05-09T13:06:31.312Z,0.90
2023-05-09T13:09:01.248Z,0.70
2023-05-09T13:11:29.281Z,0.80
2023-05-09T13:13:56.253Z,0.80
2023-05-09T13:16:23.502Z,0.80
2023-05-09T13:18:50.460Z,0.68
2023-05-09T13:21:17.592Z,0.77
2023-05-09T13:23:45.598Z,0.80
2023-05-09T13:26:12.719Z,0.80
2023-05-09T13:28:39.606Z,0.70
2023-05-09T13:31:09.363Z,0.70
2023-05-09T13:33:36.237Z,0.80
2023-05-09T13:36:03.860Z,0.80
2023-05-09T13:38:32.295Z,0.70
2023-05-09T13:41:00.261Z,0.80
2023-05-09T13:43:27.608Z,0.70
2023-05-09T13:45:54.506Z,0.90
2023-05-09T13:48:21.845Z,0.80
2023-05-09T13:50:50.647Z,0.85
2023-05-09T13:53:17.608Z,0.83
2023-05-09T13:55:45.643Z,0.90
2023-05-09T13:58:12.787Z,0.85
2023-05-09T14:00:40.189Z,0.90
2023-05-09T14:03:07.076Z,1.15
2023-05-09T14:05:34.758Z,1.05
2023-05-09T14:08:01.931Z,0.90
2023-05-09T14:10:29.172Z,0.90
2023-05-09T14:12:57.089Z,0.80
2023-05-09T14:15:24.117Z,0.85
2023-05-09T14:17:51.043Z,0.80
2023-05-09T14:20:18.450Z,1.00
2023-05-09T14:22:45.488Z,0.90
2023-05-09T14:25:12.861Z,0.85
2023-05-09T14:27:39.669Z,1.00
2023-05-09T14:30:07.393Z,0.90
2023-05-09T14:32:34.286Z,1.00
2023-05-09T14:35:01.293Z,1.00
2023-05-09T14:37:29.557Z,0.90
2023-05-09T14:39:56.487Z,0.90
2023-05-09T14:42:23.778Z,0.82
2023-05-09T14:44:50.888Z,0.90
2023-05-09T14:47:18.006Z,0.80
2023-05-09T14:49:44.909Z,1.10
2023-05-09T14:52:12.197Z,0.90
2023-05-09T14:54:39.118Z,1.17
2023-05-09T14:57:07.652Z,1.10
2023-05-09T14:59:36.802Z,1.10
2023-05-09T15:02:04.217Z,1.00
2023-05-09T15:04:31.493Z,1.08
2023-05-09T15:06:59.258Z,1.00
2023-05-09T15:09:26.909Z,1.20
2023-05-09T15:11:55.942Z,1.30
2023-05-09T15:14:24.198Z,1.08
2023-05-09T15:16:52.362Z,1.00
2023-05-09T15:19:19.449Z,1.00
2023-05-09T15:21:46.824Z,0.93
2023-05-09T15:24:13.751Z,1.00
2023-05-09T15:26:40.720Z,0.93
2023-05-09T15:29:07.778Z,1.23
2023-05-09T15:31:36.390Z,1.10
2023-05-09T15:34:03.535Z,1.15
2023-05-09T15:36:31.124Z,1.10
2023-05-09T15:38:58.118Z,0.95
2023-05-09T15:41:25.139Z,1.17
2023-05-09T15:43:53.055Z,0.90
2023-05-09T15:46:20.158Z,1.00
2023-05-09T15:48:47.829Z,0.95
2023-05-09T15:51:16.445Z,1.30
2023-05-09T15:53:43.495Z,1.52
2023-05-09T15:56:10.648Z,1.33
2023-05-09T15:58:37.785Z,3.70
2023-05-09T16:01:06.433Z,1.10
2023-05-09T16:03:34.058Z,2.30
2023-05-09T16:06:01.458Z,2.42
2023-05-09T16:08:28.298Z,1.40
2023-05-09T16:10:55.241Z,0.80
2023-05-09T16:13:22.805Z,0.82
2023-05-09T16:15:51.142Z,0.90
2023-05-09T16:18:18.831Z,1.05
2023-05-09T16:20:45.883Z,0.93
2023-05-09T16:23:13.271Z,0.95
2023-05-09T16:25:40.139Z,0.90
2023-05-09T16:28:07.749Z,1.10
2023-05-09T16:30:34.930Z,1.00
2023-05-09T16:33:01.928Z,0.90
2023-05-09T16:35:29.248Z,1.02
2023-05-09T16:37:56.168Z,1.00
2023-05-09T16:40:23.287Z,0.90
2023-05-09T16:42:50.250Z,0.90
2023-05-09T16:45:17.367Z,1.23
2023-05-09T16:47:47.029Z,1.20
2023-05-09T16:50:14.105Z,1.25
2023-05-09T16:52:41.133Z,1.30
2023-05-09T16:55:08.743Z,1.10
2023-05-09T16:57:35.678Z,1.10
2023-05-09T17:00:02.715Z,1.10
2023-05-09T17:02:29.891Z,1.10
2023-05-09T17:04:57.796Z,0.98
2023-05-09T17:07:27.278Z,1.10
2023-05-09T17:09:54.316Z,1.20
2023-05-09T17:12:21.633Z,1.40
2023-05-09T17:14:48.847Z,1.05
2023-05-09T17:17:17.895Z,1.20
2023-05-09T17:19:46.285Z,1.20
2023-05-09T17:22:14.581Z,1.00
2023-05-09T17:24:41.865Z,1.30
2023-05-09T17:27:11.057Z,1.35
2023-05-09T17:29:38.256Z,1.40
2023-05-09T17:32:05.896Z,1.50
2023-05-09T17:34:33.783Z,1.27
2023-05-09T17:37:02.602Z,1.40
2023-05-09T17:39:29.753Z,1.42
2023-05-09T17:41:56.819Z,1.23
2023-05-09T17:44:24.232Z,1.60
2023-05-09T17:46:51.473Z,1.60
2023-05-09T17:49:18.450Z,1.70
2023-05-09T17:51:45.593Z,1.80
2023-05-09T17:54:13.052Z,1.92
2023-05-09T17:56:41.200Z,2.00
2023-05-09T17:59:08.242Z,2.42
2023-05-09T18:01:36.201Z,2.00
2023-05-09T18:04:03.605Z,2.90
2023-05-09T18:06:30.556Z,2.25
2023-05-09T18:08:57.635Z,2.78
2023-05-09T18:11:24.735Z,2.70
2023-05-09T18:13:51.902Z,2.90
2023-05-09T18:16:19.158Z,2.88
2023-05-09T18:18:46.143Z,2.95
2023-05-09T18:21:13.401Z,3.20
2023-05-09T18:23:41.199Z,3.95
2023-05-09T18:26:08.809Z,3.25
2023-05-09T18:28:41.769Z,3.25
2023-05-09T18:31:16.033Z,2.75
2023-05-09T18:33:44.821Z,2.90
2023-05-09T18:36:11.760Z,3.17
2023-05-09T18:38:39.513Z,2.80
2023-05-09T18:41:07.911Z,2.85
2023-05-09T18:43:35.902Z,2.70
2023-05-09T18:46:03.744Z,2.60
2023-05-09T18:48:31.301Z,2.13
2023-05-09T18:50:58.608Z,2.00
2023-05-09T18:53:29.419Z,2.00
2023-05-09T18:55:57.141Z,2.00
2023-05-09T18:58:24.991Z,1.90
2023-05-09T19:00:53.260Z,1.95
2023-05-09T19:03:21.308Z,1.85
2023-05-09T19:05:48.731Z,1.80
2023-05-09T19:08:16.905Z,2.08
2023-05-09T19:10:45.152Z,2.20
2023-05-09T19:13:14.719Z,2.00
2023-05-09T19:15:43.879Z,2.00
2023-05-09T19:18:14.418Z,1.98
2023-05-09T19:20:41.736Z,1.70
2023-05-09T19:23:08.955Z,1.73
2023-05-09T19:25:37.344Z,1.42
2023-05-09T19:28:04.458Z,1.60
2023-05-09T19:30:31.630Z,1.75
2023-05-09T19:32:59.243Z,1.58
2023-05-09T19:35:26.452Z,1.38
2023-05-09T19:37:53.483Z,1.30
2023-05-09T19:40:21.767Z,1.20
2023-05-09T19:42:53.205Z,1.27
2023-05-09T19:45:21.025Z,1.42
2023-05-09T19:47:49.326Z,1.40
2023-05-09T19:50:17.168Z,1.50
2023-05-09T19:52:44.563Z,1.55
2023-05-09T19:55:13.540Z,1.40
2023-05-09T19:57:40.687Z,1.20
2023-05-09T20:00:10.031Z,1.30
2023-05-09T20:02:39.313Z,1.00
2023-05-09T20:05:07.025Z,1.20
2023-05-09T20:07:33.917Z,1.20
2023-05-09T20:10:18.421Z,1.20
2023-05-09T20:12:53.866Z,1.00
2023-05-09T20:15:20.819Z,1.10
2023-05-09T20:17:48.427Z,1.10
2023-05-09T20:20:16.118Z,1.00
2023-05-09T20:22:43.420Z,1.00
2023-05-09T20:25:10.545Z,1.20
2023-05-09T20:27:37.811Z,1.20
2023-05-09T20:30:05.349Z,1.40
2023-05-09T20:32:32.554Z,1.50
2023-05-09T20:34:59.629Z,1.55
2023-05-09T20:37:26.599Z,1.60
2023-05-09T20:39:53.431Z,1.70
2023-05-09T20:42:20.395Z,1.58
2023-05-09T20:44:57.098Z,1.30
2023-05-09T20:47:24.655Z,1.40
2023-05-09T20:49:51.499Z,1.13
2023-05-09T20:52:18.471Z,1.33
2023-05-09T20:54:47.153Z,1.10
2023-05-09T20:57:13.974Z,1.10
2023-05-09T20:59:41.037Z,1.10
2023-05-09T21:02:08.448Z,1.02
2023-05-09T21:04:35.475Z,1.00
2023-05-09T21:07:02.319Z,1.00
2023-05-09T21:09:29.394Z,0.98
2023-05-09T21:11:56.126Z,1.00
2023-05-09T21:14:23.266Z,0.88
2023-05-09T21:16:51.710Z,0.82
2023-05-09T21:19:18.483Z,1.00
2023-05-09T21:21:45.246Z,0.90
2023-05-09T21:24:12.276Z,0.90
2023-05-09T21:26:39.019Z,1.00
2023-05-09T21:29:06.712Z,1.00
2023-05-09T21:31:34.342Z,1.00
2023-05-09T21:34:01.299Z,0.98
2023-05-09T21:36:28.249Z,0.90
2023-05-09T21:38:55.351Z,1.00
2023-05-09T21:41:22.034Z,0.88
2023-05-09T21:43:48.811Z,1.00
2023-05-09T21:46:16.127Z,0.93
2023-05-09T21:48:43.204Z,1.00
2023-05-09T21:51:09.920Z,1.05
2023-05-09T21:53:36.842Z,1.00
2023-05-09T21:56:03.809Z,0.90
2023-05-09T21:58:30.540Z,1.10
2023-05-09T22:00:57.426Z,1.00
2023-05-09T22:03:24.486Z,1.00
2023-05-09T22:05:51.257Z,1.00
2023-05-09T22:08:18.337Z,0.80
2023-05-09T22:10:45.034Z,1.10
2023-05-09T22:13:11.820Z,1.00
2023-05-09T22:15:38.699Z,1.10
2023-05-09T22:18:05.552Z,1.10
2023-05-09T22:20:32.284Z,0.90
2023-05-09T22:22:59.071Z,1.00
2023-05-09T22:25:25.869Z,1.30
2023-05-09T22:27:53.491Z,1.02
2023-05-09T22:30:20.349Z,1.10
2023-05-09T22:32:47.052Z,1.00
2023-05-09T22:35:13.755Z,1.17
2023-05-09T22:37:40.506Z,1.00
2023-05-09T22:40:07.834Z,1.00
2023-05-09T22:42:34.839Z,1.00
2023-05-09T22:45:02.167Z,1.00
2023-05-09T22:47:28.972Z,1.05
2023-05-09T22:49:55.920Z,1.15
2023-05-09T22:52:22.710Z,1.00
2023-05-09T22:54:49.512Z,1.10
2023-05-09T22:57:18.015Z,1.08
2023-05-09T22:59:45.367Z,1.23
2023-05-09T23:02:12.805Z,1.13
2023-05-09T23:04:39.462Z,1.13
2023-05-09T23:07:06.344Z,1.00
2023-05-09T23:09:33.224Z,1.05
2023-05-09T23:12:01.166Z,1.10
2023-05-09T23:14:28.321Z,0.90
2023-05-09T23:16:56.100Z,1.20
2023-05-09T23:19:23.134Z,0.90
2023-05-09T23:21:50.569Z,1.05
2023-05-09T23:24:17.560Z,1.10
2023-05-09T23:26:44.681Z,1.05
2023-05-09T23:29:11.779Z,1.10
2023-05-09T23:31:39.155Z,1.00
2023-05-09T23:34:05.826Z,1.10
2023-05-09T23:36:32.903Z,1.00
2023-05-09T23:38:59.636Z,1.10
2023-05-09T23:41:26.492Z,1.20
2023-05-09T23:43:53.287Z,1.00
2023-05-09T23:46:19.974Z,1.00
2023-05-09T23:48:46.743Z,1.10
2023-05-09T23:51:13.524Z,1.00
2023-05-09T23:53:40.182Z,1.20
2023-05-09T23:56:07.326Z,0.98
2023-05-09T23:58:34.169Z,1.17
